Terminal Aerodrome Forecast
Issued by NWS Lake Charles, LA

Home | Current Version | Previous Version | Text Only | Print | Product List | Glossary On
Versions: 1 2 3 4 5 6 7 8 9 10 11 12 13
000
FTUS44 KLCH 231138
TAFAEX
TAF
KAEX 231138Z 2312/2412 13003KT P6SM SKC
     FM231700 23007KT P6SM VCSH FEW022 BKN045 BKN250
     FM240100 VRB05KT P6SM FEW050 BKN250=

USA.gov is the U.S. government's official web portal to all federal, state and local government web resources and services.